Trine Charlotte — LMRY — position and weather

sailwx.info

Track history (hours):
 
Tides and Currents Weather Stations Pressure Air Temp Water Temp Dewpoint Dewpoint Depression Visibility Wind Speed Wind Dir Waves Ship Positions

Trine Charlotte

Last reported at 2016-May-25 07:20 UTC. Time now 2016-May-28 04:02 UTC.
Position N 69°06' E 017°27'.

Length 66 m; draft 5 m.

Type: Cargo ship. MMSI: 257233000.

Date/timePositionNaut miles runAvg speedWind from/ knotsBaromVisibWave heightAir tempDewpointWater temp
2016-May-25 07:20N 69°06' E 017°27'7 8.6
2016-May-25 06:34N 69°08' E 017°45'8 8.4
2016-May-25 05:32N 69°09' E 018°08'1 0.1
2016-May-24 21:05N 69°09' E 018°06'4 8.3
2016-May-24 20:33N 69°13' E 017°59'  
2016-May-21 04:33N 69°14' E 017°58'6 6.4
2016-May-21 03:33N 69°09' E 017°48'113 3.3
2016-May-19 17:33N 67°43' E 014°31'15 7.4
2016-May-19 15:33N 67°28' E 014°28'7 7.5
2016-May-19 14:34N 67°21' E 014°24'5 4.6
2016-May-19 13:33N 67°16' E 014°21'0 0.0
2016-May-19 12:33N 67°16' E 014°21'1 1.4
2016-May-19 11:33N 67°17' E 014°23'0 0.0
2016-May-19 10:33N 67°17' E 014°23'8 8.5
2016-May-19 09:33N 67°12' E 014°07'10 9.5
2016-May-19 08:33N 67°04' E 013°53'9 9.2
2016-May-19 07:33N 66°58' E 013°34'9 8.7
2016-May-19 06:34N 66°52' E 013°20'9 9.3
2016-May-19 05:33N 66°43' E 013°11'12 8.8
2016-May-19 04:09N 66°32' E 012°58'7 9.6
2016-May-19 03:27N 66°25' E 012°59'9 9.4
2016-May-19 02:32N 66°16' E 012°55'10 9.2
2016-May-19 01:24N 66°07' E 012°45'55 9.1
2016-May-18 19:19N 65°15' E 011°56'9 9.0
2016-May-18 18:19N 65°07' E 011°49'7 9.2
2016-May-18 17:33N 65°01' E 011°41'9 8.8
2016-May-18 16:33N 64°55' E 011°25'9 9.0
2016-May-18 15:33N 64°49' E 011°09'8 8.2
2016-May-18 14:33N 64°41' E 011°07'8 8.0
2016-May-18 13:33N 64°35' E 011°18'2 0.3
2016-May-18 07:18N 64°33' E 011°21'6 8.5
2016-May-18 06:33N 64°38' E 011°10'9 9.1
2016-May-18 05:33N 64°47' E 011°05'9 8.8
2016-May-18 04:33N 64°53' E 011°19'9 9.2
2016-May-18 03:33N 64°59' E 011°35'9 8.7
2016-May-18 02:34N 65°06' E 011°48'9 8.7
2016-May-18 01:33N 65°14' E 011°55'9 9.0
2016-May-18 00:32N 65°22' E 012°05'59 8.4
2016-May-17 17:28N 66°18' E 012°56'10 8.8
2016-May-17 16:22N 66°28' E 012°59'6 7.8
2016-May-17 15:32N 66°34' E 013°04'18 8.9
2016-May-17 13:31N 66°51' E 013°19'8 7.8
2016-May-17 12:32N 66°57' E 013°29'8 8.5
2016-May-17 11:32N 67°02' E 013°47'8 8.7
2016-May-17 10:33N 67°08' E 014°02'8 8.0
2016-May-17 09:33N 67°15' E 014°12'8 8.0
2016-May-17 08:33N 67°22' E 014°23'8 8.4
2016-May-17 07:34N 67°30' E 014°29'12 8.2
2016-May-17 06:06N 67°42' E 014°31'  
Track history (hours):
 
Tides and Currents Weather Stations Pressure Air Temp Water Temp Dewpoint Dewpoint Depression Visibility Wind Speed Wind Dir Waves Ship Positions

Trine Charlotte

Last reported at 2016-May-25 07:20 UTC. Time now 2016-May-28 04:02 UTC.
Position N 69°06' E 017°27'.

Length 66 m; draft 5 m.

Type: Cargo ship. MMSI: 257233000.

Date/timePositionNaut miles runAvg speedWind from/ knotsBaromVisibWave heightAir tempDewpointWater temp
2016-May-25 07:20N 69°06' E 017°27'7 8.6
2016-May-25 06:34N 69°08' E 017°45'8 8.4
2016-May-25 05:32N 69°09' E 018°08'1 0.1
2016-May-24 21:05N 69°09' E 018°06'4 8.3
2016-May-24 20:33N 69°13' E 017°59'  
2016-May-21 04:33N 69°14' E 017°58'6 6.4
2016-May-21 03:33N 69°09' E 017°48'113 3.3
2016-May-19 17:33N 67°43' E 014°31'15 7.4
2016-May-19 15:33N 67°28' E 014°28'7 7.5
2016-May-19 14:34N 67°21' E 014°24'5 4.6
2016-May-19 13:33N 67°16' E 014°21'0 0.0
2016-May-19 12:33N 67°16' E 014°21'1 1.4
2016-May-19 11:33N 67°17' E 014°23'0 0.0
2016-May-19 10:33N 67°17' E 014°23'8 8.5
2016-May-19 09:33N 67°12' E 014°07'10 9.5
2016-May-19 08:33N 67°04' E 013°53'9 9.2
2016-May-19 07:33N 66°58' E 013°34'9 8.7
2016-May-19 06:34N 66°52' E 013°20'9 9.3
2016-May-19 05:33N 66°43' E 013°11'12 8.8
2016-May-19 04:09N 66°32' E 012°58'7 9.6
2016-May-19 03:27N 66°25' E 012°59'9 9.4
2016-May-19 02:32N 66°16' E 012°55'10 9.2
2016-May-19 01:24N 66°07' E 012°45'55 9.1
2016-May-18 19:19N 65°15' E 011°56'9 9.0
2016-May-18 18:19N 65°07' E 011°49'7 9.2
2016-May-18 17:33N 65°01' E 011°41'9 8.8
2016-May-18 16:33N 64°55' E 011°25'9 9.0
2016-May-18 15:33N 64°49' E 011°09'8 8.2
2016-May-18 14:33N 64°41' E 011°07'8 8.0
2016-May-18 13:33N 64°35' E 011°18'2 0.3
2016-May-18 07:18N 64°33' E 011°21'6 8.5
2016-May-18 06:33N 64°38' E 011°10'9 9.1
2016-May-18 05:33N 64°47' E 011°05'9 8.8
2016-May-18 04:33N 64°53' E 011°19'9 9.2
2016-May-18 03:33N 64°59' E 011°35'9 8.7
2016-May-18 02:34N 65°06' E 011°48'9 8.7
2016-May-18 01:33N 65°14' E 011°55'9 9.0
2016-May-18 00:32N 65°22' E 012°05'59 8.4
2016-May-17 17:28N 66°18' E 012°56'10 8.8
2016-May-17 16:22N 66°28' E 012°59'6 7.8
2016-May-17 15:32N 66°34' E 013°04'18 8.9
2016-May-17 13:31N 66°51' E 013°19'8 7.8
2016-May-17 12:32N 66°57' E 013°29'8 8.5
2016-May-17 11:32N 67°02' E 013°47'8 8.7
2016-May-17 10:33N 67°08' E 014°02'8 8.0
2016-May-17 09:33N 67°15' E 014°12'8 8.0
2016-May-17 08:33N 67°22' E 014°23'8 8.4
2016-May-17 07:34N 67°30' E 014°29'12 8.2
2016-May-17 06:06N 67°42' E 014°31'  

Dump ship's entire track history